sensor_id;sensor_type;location;lat;lon;timestamp;temperature;humidity
44359;DHT22;30077;52.474;13.326;2023-05-10T00:03:12;12.60;99.90
44359;DHT22;30077;52.474;13.326;2023-05-10T00:08:12;12.50;99.90
44359;DHT22;30077;52.474;13.326;2023-05-10T00:13:13;12.50;99.90
44359;DHT22;30077;52.474;13.326;2023-05-10T00:18:13;12.50;99.90
44359;DHT22;30077;52.474;13.326;2023-05-10T00:23:14;12.50;99.90
44359;DHT22;30077;52.474;13.326;2023-05-10T00:28:14;12.50;99.90
44359;DHT22;30077;52.474;13.326;2023-05-10T00:33:15;12.40;99.90
44359;DHT22;30077;52.474;13.326;2023-05-10T00:38:16;12.40;99.90
44359;DHT22;30077;52.474;13.326;2023-05-10T00:43:16;12.30;99.90
44359;DHT22;30077;52.474;13.326;2023-05-10T00:48:17;12.30;99.90
44359;DHT22;30077;52.474;13.326;2023-05-10T00:53:18;12.20;99.90
44359;DHT22;30077;52.474;13.326;2023-05-10T00:58:19;12.20;99.90
44359;DHT22;30077;52.474;13.326;2023-05-10T01:03:19;12.10;99.90
44359;DHT22;30077;52.474;13.326;2023-05-10T01:08:20;12.00;99.90
44359;DHT22;30077;52.474;13.326;2023-05-10T01:13:31;11.90;99.90
44359;DHT22;30077;52.474;13.326;2023-05-10T01:18:40;11.80;99.90
44359;DHT22;30077;52.474;13.326;2023-05-10T01:24:08;11.80;99.90
44359;DHT22;30077;52.474;13.326;2023-05-10T01:29:24;11.70;99.90
44359;DHT22;30077;52.474;13.326;2023-05-10T01:34:38;11.70;99.90
44359;DHT22;30077;52.474;13.326;2023-05-10T01:39:46;11.60;99.90
44359;DHT22;30077;52.474;13.326;2023-05-10T01:45:08;11.60;99.90
44359;DHT22;30077;52.474;13.326;2023-05-10T01:50:19;11.60;99.90
44359;DHT22;30077;52.474;13.326;2023-05-10T01:55:25;11.50;99.90
44359;DHT22;30077;52.474;13.326;2023-05-10T02:00:26;11.50;99.90
44359;DHT22;30077;52.474;13.326;2023-05-10T02:05:28;11.50;99.90
44359;DHT22;30077;52.474;13.326;2023-05-10T02:10:33;11.50;99.90
44359;DHT22;30077;52.474;13.326;2023-05-10T02:15:35;11.40;99.90
44359;DHT22;30077;52.474;13.326;2023-05-10T02:20:37;11.30;99.90
44359;DHT22;30077;52.474;13.326;2023-05-10T02:25:39;11.20;99.90
44359;DHT22;30077;52.474;13.326;2023-05-10T02:30:40;11.10;99.90
44359;DHT22;30077;52.474;13.326;2023-05-10T02:35:42;11.20;99.90
44359;DHT22;30077;52.474;13.326;2023-05-10T02:40:43;11.00;99.90
44359;DHT22;30077;52.474;13.326;2023-05-10T02:45:47;11.00;99.90
44359;DHT22;30077;52.474;13.326;2023-05-10T02:50:50;11.00;99.90
44359;DHT22;30077;52.474;13.326;2023-05-10T02:55:58;10.90;99.90
44359;DHT22;30077;52.474;13.326;2023-05-10T03:01:00;10.80;99.90
44359;DHT22;30077;52.474;13.326;2023-05-10T03:06:00;10.80;99.90
44359;DHT22;30077;52.474;13.326;2023-05-10T03:11:26;10.80;99.90
44359;DHT22;30077;52.474;13.326;2023-05-10T03:16:35;10.70;99.90
44359;DHT22;30077;52.474;13.326;2023-05-10T03:21:40;10.70;99.90
44359;DHT22;30077;52.474;13.326;2023-05-10T03:26:43;10.60;99.90
44359;DHT22;30077;52.474;13.326;2023-05-10T03:31:45;10.60;99.90
44359;DHT22;30077;52.474;13.326;2023-05-10T03:36:46;10.70;99.90
44359;DHT22;30077;52.474;13.326;2023-05-10T03:41:46;10.70;99.90
44359;DHT22;30077;52.474;13.326;2023-05-10T03:46:47;10.70;99.90
44359;DHT22;30077;52.474;13.326;2023-05-10T03:51:47;10.70;99.90
44359;DHT22;30077;52.474;13.326;2023-05-10T03:56:48;10.70;99.90
44359;DHT22;30077;52.474;13.326;2023-05-10T04:01:48;10.80;99.90
44359;DHT22;30077;52.474;13.326;2023-05-10T04:06:49;10.90;99.90
44359;DHT22;30077;52.474;13.326;2023-05-10T04:11:50;11.20;99.90
44359;DHT22;30077;52.474;13.326;2023-05-10T04:16:50;11.30;99.90
44359;DHT22;30077;52.474;13.326;2023-05-10T04:21:50;11.40;99.90
44359;DHT22;30077;52.474;13.326;2023-05-10T04:26:51;11.50;99.90
44359;DHT22;30077;52.474;13.326;2023-05-10T04:31:52;11.60;99.90
44359;DHT22;30077;52.474;13.326;2023-05-10T04:36:52;11.60;99.90
44359;DHT22;30077;52.474;13.326;2023-05-10T04:41:52;11.80;99.90
44359;DHT22;30077;52.474;13.326;2023-05-10T04:46:53;11.80;99.90
44359;DHT22;30077;52.474;13.326;2023-05-10T04:51:53;12.10;99.90
44359;DHT22;30077;52.474;13.326;2023-05-10T04:56:54;12.10;99.90
44359;DHT22;30077;52.474;13.326;2023-05-10T05:01:54;12.20;99.90
44359;DHT22;30077;52.474;13.326;2023-05-10T05:06:55;12.30;99.90
44359;DHT22;30077;52.474;13.326;2023-05-10T05:11:55;12.30;99.90
44359;DHT22;30077;52.474;13.326;2023-05-10T05:16:56;12.40;99.90
44359;DHT22;30077;52.474;13.326;2023-05-10T05:21:56;12.50;99.90
44359;DHT22;30077;52.474;13.326;2023-05-10T05:26:57;12.70;99.90
44359;DHT22;30077;52.474;13.326;2023-05-10T05:31:57;12.80;99.90
44359;DHT22;30077;52.474;13.326;2023-05-10T05:36:58;12.80;99.90
44359;DHT22;30077;52.474;13.326;2023-05-10T05:41:58;12.90;99.90
44359;DHT22;30077;52.474;13.326;2023-05-10T05:46:59;13.00;99.90
44359;DHT22;30077;52.474;13.326;2023-05-10T05:52:03;13.10;99.90
44359;DHT22;30077;52.474;13.326;2023-05-10T05:57:04;13.20;99.90
44359;DHT22;30077;52.474;13.326;2023-05-10T06:02:05;13.40;99.90
44359;DHT22;30077;52.474;13.326;2023-05-10T06:07:05;13.50;99.90
44359;DHT22;30077;52.474;13.326;2023-05-10T06:12:06;13.60;99.90
44359;DHT22;30077;52.474;13.326;2023-05-10T06:17:06;13.70;99.90
44359;DHT22;30077;52.474;13.326;2023-05-10T06:22:07;13.90;99.90
44359;DHT22;30077;52.474;13.326;2023-05-10T06:27:07;14.00;99.90
44359;DHT22;30077;52.474;13.326;2023-05-10T06:32:08;14.10;99.90
44359;DHT22;30077;52.474;13.326;2023-05-10T06:37:08;14.20;99.90
44359;DHT22;30077;52.474;13.326;2023-05-10T06:42:09;14.40;99.90
44359;DHT22;30077;52.474;13.326;2023-05-10T06:47:09;14.40;99.90
44359;DHT22;30077;52.474;13.326;2023-05-10T06:52:10;14.50;99.90
44359;DHT22;30077;52.474;13.326;2023-05-10T06:57:10;14.50;99.90
44359;DHT22;30077;52.474;13.326;2023-05-10T07:02:11;14.60;99.90
44359;DHT22;30077;52.474;13.326;2023-05-10T07:07:11;14.70;99.90
44359;DHT22;30077;52.474;13.326;2023-05-10T07:12:12;14.80;99.90
44359;DHT22;30077;52.474;13.326;2023-05-10T07:17:12;14.90;99.90
44359;DHT22;30077;52.474;13.326;2023-05-10T07:22:13;15.00;99.90
44359;DHT22;30077;52.474;13.326;2023-05-10T07:27:13;15.20;99.90
44359;DHT22;30077;52.474;13.326;2023-05-10T07:32:14;15.30;99.90
44359;DHT22;30077;52.474;13.326;2023-05-10T07:37:15;15.40;99.90
44359;DHT22;30077;52.474;13.326;2023-05-10T07:42:16;15.50;99.90
44359;DHT22;30077;52.474;13.326;2023-05-10T07:47:16;15.70;99.90
44359;DHT22;30077;52.474;13.326;2023-05-10T07:52:17;15.90;99.90
44359;DHT22;30077;52.474;13.326;2023-05-10T07:57:18;16.00;99.90
44359;DHT22;30077;52.474;13.326;2023-05-10T08:02:18;16.10;99.90
44359;DHT22;30077;52.474;13.326;2023-05-10T08:07:19;16.20;99.90
44359;DHT22;30077;52.474;13.326;2023-05-10T08:12:19;16.30;99.90
44359;DHT22;30077;52.474;13.326;2023-05-10T08:17:20;16.30;99.90
44359;DHT22;30077;52.474;13.326;2023-05-10T08:22:20;16.30;99.90
44359;DHT22;30077;52.474;13.326;2023-05-10T08:27:21;16.50;99.90
44359;DHT22;30077;52.474;13.326;2023-05-10T08:32:22;16.60;99.90
44359;DHT22;30077;52.474;13.326;2023-05-10T08:37:25;16.70;99.90
44359;DHT22;30077;52.474;13.326;2023-05-10T08:42:28;16.80;99.90
44359;DHT22;30077;52.474;13.326;2023-05-10T08:47:30;16.90;99.60
44359;DHT22;30077;52.474;13.326;2023-05-10T08:52:31;17.10;99.10
44359;DHT22;30077;52.474;13.326;2023-05-10T08:57:33;17.30;99.20
44359;DHT22;30077;52.474;13.326;2023-05-10T09:02:35;17.40;99.10
44359;DHT22;30077;52.474;13.326;2023-05-10T09:07:37;17.50;98.50
44359;DHT22;30077;52.474;13.326;2023-05-10T09:12:37;17.50;98.50
44359;DHT22;30077;52.474;13.326;2023-05-10T09:17:42;17.70;98.30
44359;DHT22;30077;52.474;13.326;2023-05-10T09:22:45;17.90;98.30
44359;DHT22;30077;52.474;13.326;2023-05-10T09:27:47;17.90;98.20
44359;DHT22;30077;52.474;13.326;2023-05-10T09:32:47;18.00;97.60
44359;DHT22;30077;52.474;13.326;2023-05-10T09:37:52;18.30;97.20
44359;DHT22;30077;52.474;13.326;2023-05-10T09:43:06;18.40;97.10
44359;DHT22;30077;52.474;13.326;2023-05-10T09:48:08;18.40;96.60
44359;DHT22;30077;52.474;13.326;2023-05-10T09:53:08;18.40;96.60
44359;DHT22;30077;52.474;13.326;2023-05-10T09:58:09;18.50;97.10
44359;DHT22;30077;52.474;13.326;2023-05-10T10:03:19;18.70;96.40
44359;DHT22;30077;52.474;13.326;2023-05-10T10:08:19;18.80;96.00
44359;DHT22;30077;52.474;13.326;2023-05-10T10:13:20;18.80;95.70
44359;DHT22;30077;52.474;13.326;2023-05-10T10:18:21;18.90;95.40
44359;DHT22;30077;52.474;13.326;2023-05-10T10:23:27;19.00;94.70
44359;DHT22;30077;52.474;13.326;2023-05-10T10:28:44;19.10;95.20
44359;DHT22;30077;52.474;13.326;2023-05-10T10:39:24;19.40;94.40
44359;DHT22;30077;52.474;13.326;2023-05-10T10:54:37;19.60;94.00
44359;DHT22;30077;52.474;13.326;2023-05-10T10:59:42;19.80;93.60
44359;DHT22;30077;52.474;13.326;2023-05-10T11:04:44;20.00;93.00
44359;DHT22;30077;52.474;13.326;2023-05-10T11:09:46;19.90;93.20
44359;DHT22;30077;52.474;13.326;2023-05-10T11:14:50;20.00;93.10
44359;DHT22;30077;52.474;13.326;2023-05-10T11:20:08;20.00;92.90
44359;DHT22;30077;52.474;13.326;2023-05-10T11:25:09;20.10;92.50
44359;DHT22;30077;52.474;13.326;2023-05-10T11:30:11;20.10;92.50
44359;DHT22;30077;52.474;13.326;2023-05-10T11:35:13;20.20;92.60
44359;DHT22;30077;52.474;13.326;2023-05-10T11:40:13;20.40;92.60
44359;DHT22;30077;52.474;13.326;2023-05-10T11:45:14;20.40;91.60
44359;DHT22;30077;52.474;13.326;2023-05-10T11:50:16;20.50;91.20
44359;DHT22;30077;52.474;13.326;2023-05-10T11:55:17;20.60;90.90
44359;DHT22;30077;52.474;13.326;2023-05-10T12:00:18;20.70;90.60
44359;DHT22;30077;52.474;13.326;2023-05-10T12:05:19;20.80;90.80
44359;DHT22;30077;52.474;13.326;2023-05-10T12:10:26;20.80;90.60
44359;DHT22;30077;52.474;13.326;2023-05-10T12:15:27;20.80;90.20
44359;DHT22;30077;52.474;13.326;2023-05-10T12:20:28;21.10;89.60
44359;DHT22;30077;52.474;13.326;2023-05-10T12:25:31;21.20;89.80
44359;DHT22;30077;52.474;13.326;2023-05-10T12:30:33;21.20;89.40
44359;DHT22;30077;52.474;13.326;2023-05-10T12:35:43;21.30;88.60
44359;DHT22;30077;52.474;13.326;2023-05-10T12:40:44;21.30;86.70
44359;DHT22;30077;52.474;13.326;2023-05-10T12:45:44;21.30;86.70
44359;DHT22;30077;52.474;13.326;2023-05-10T12:50:48;21.50;85.90
44359;DHT22;30077;52.474;13.326;2023-05-10T12:55:48;21.40;86.00
44359;DHT22;30077;52.474;13.326;2023-05-10T13:00:50;21.50;86.00
44359;DHT22;30077;52.474;13.326;2023-05-10T13:05:51;21.60;85.00
44359;DHT22;30077;52.474;13.326;2023-05-10T13:10:52;21.50;84.90
44359;DHT22;30077;52.474;13.326;2023-05-10T13:15:53;21.50;85.40
44359;DHT22;30077;52.474;13.326;2023-05-10T13:20:54;21.70;84.80
44359;DHT22;30077;52.474;13.326;2023-05-10T13:25:55;21.60;84.00
44359;DHT22;30077;52.474;13.326;2023-05-10T13:30:55;21.60;84.90
44359;DHT22;30077;52.474;13.326;2023-05-10T13:35:56;21.70;84.20
44359;DHT22;30077;52.474;13.326;2023-05-10T13:40:56;21.70;83.80
44359;DHT22;30077;52.474;13.326;2023-05-10T13:45:57;21.70;82.30
44359;DHT22;30077;52.474;13.326;2023-05-10T13:50:57;21.90;82.20
44359;DHT22;30077;52.474;13.326;2023-05-10T13:55:58;22.00;82.50
44359;DHT22;30077;52.474;13.326;2023-05-10T14:00:58;22.10;82.80
44359;DHT22;30077;52.474;13.326;2023-05-10T14:05:59;22.30;82.70
44359;DHT22;30077;52.474;13.326;2023-05-10T14:10:59;22.30;81.70
44359;DHT22;30077;52.474;13.326;2023-05-10T14:16:00;22.60;80.90
44359;DHT22;30077;52.474;13.326;2023-05-10T14:21:02;22.50;79.70
44359;DHT22;30077;52.474;13.326;2023-05-10T14:26:02;22.60;77.70
44359;DHT22;30077;52.474;13.326;2023-05-10T14:31:03;22.60;78.10
44359;DHT22;30077;52.474;13.326;2023-05-10T14:36:03;22.50;77.90
44359;DHT22;30077;52.474;13.326;2023-05-10T14:41:04;22.40;78.00
44359;DHT22;30077;52.474;13.326;2023-05-10T14:46:05;22.20;77.90
44359;DHT22;30077;52.474;13.326;2023-05-10T14:51:06;22.20;78.80
44359;DHT22;30077;52.474;13.326;2023-05-10T14:56:07;22.30;78.80
44359;DHT22;30077;52.474;13.326;2023-05-10T15:01:07;22.60;78.10
44359;DHT22;30077;52.474;13.326;2023-05-10T15:06:08;22.70;77.20
44359;DHT22;30077;52.474;13.326;2023-05-10T15:11:09;22.80;77.20
44359;DHT22;30077;52.474;13.326;2023-05-10T15:16:09;22.70;77.20
44359;DHT22;30077;52.474;13.326;2023-05-10T15:21:11;22.80;76.60
44359;DHT22;30077;52.474;13.326;2023-05-10T15:26:12;23.00;76.10
44359;DHT22;30077;52.474;13.326;2023-05-10T15:31:12;23.00;76.50
44359;DHT22;30077;52.474;13.326;2023-05-10T15:36:13;23.20;76.50
44359;DHT22;30077;52.474;13.326;2023-05-10T15:41:13;23.00;76.90
44359;DHT22;30077;52.474;13.326;2023-05-10T15:46:14;22.90;77.00
44359;DHT22;30077;52.474;13.326;2023-05-10T15:51:14;22.90;77.80
44359;DHT22;30077;52.474;13.326;2023-05-10T15:56:15;22.80;77.30
44359;DHT22;30077;52.474;13.326;2023-05-10T16:01:15;22.60;77.70
44359;DHT22;30077;52.474;13.326;2023-05-10T16:06:16;22.50;78.00
44359;DHT22;30077;52.474;13.326;2023-05-10T16:11:17;22.50;78.40
44359;DHT22;30077;52.474;13.326;2023-05-10T16:16:17;22.80;78.10
44359;DHT22;30077;52.474;13.326;2023-05-10T16:21:18;22.70;82.40
44359;DHT22;30077;52.474;13.326;2023-05-10T16:26:18;22.50;84.40
44359;DHT22;30077;52.474;13.326;2023-05-10T16:31:19;22.30;92.20
44359;DHT22;30077;52.474;13.326;2023-05-10T16:36:19;22.70;94.00
44359;DHT22;30077;52.474;13.326;2023-05-10T16:41:20;22.70;95.10
44359;DHT22;30077;52.474;13.326;2023-05-10T16:46:20;22.20;96.30
44359;DHT22;30077;52.474;13.326;2023-05-10T16:51:21;22.10;97.60
44359;DHT22;30077;52.474;13.326;2023-05-10T16:56:21;22.30;98.10
44359;DHT22;30077;52.474;13.326;2023-05-10T17:01:22;22.40;98.20
44359;DHT22;30077;52.474;13.326;2023-05-10T17:06:23;21.80;99.40
44359;DHT22;30077;52.474;13.326;2023-05-10T17:11:23;21.40;99.90
44359;DHT22;30077;52.474;13.326;2023-05-10T17:16:24;21.00;99.90
44359;DHT22;30077;52.474;13.326;2023-05-10T17:21:24;20.60;99.90
44359;DHT22;30077;52.474;13.326;2023-05-10T17:26:25;20.20;99.90
44359;DHT22;30077;52.474;13.326;2023-05-10T17:31:26;20.00;99.90
44359;DHT22;30077;52.474;13.326;2023-05-10T17:36:27;19.70;99.90
44359;DHT22;30077;52.474;13.326;2023-05-10T17:41:27;19.40;99.90
44359;DHT22;30077;52.474;13.326;2023-05-10T17:46:28;19.20;99.90
44359;DHT22;30077;52.474;13.326;2023-05-10T17:51:28;19.00;99.90
44359;DHT22;30077;52.474;13.326;2023-05-10T17:56:29;18.80;99.90
44359;DHT22;30077;52.474;13.326;2023-05-10T18:01:30;18.70;99.90
44359;DHT22;30077;52.474;13.326;2023-05-10T18:06:34;18.60;99.90
44359;DHT22;30077;52.474;13.326;2023-05-10T18:11:35;18.40;99.90
44359;DHT22;30077;52.474;13.326;2023-05-10T18:16:37;18.30;99.90
44359;DHT22;30077;52.474;13.326;2023-05-10T18:21:37;18.20;99.90
44359;DHT22;30077;52.474;13.326;2023-05-10T18:26:38;18.20;99.90
44359;DHT22;30077;52.474;13.326;2023-05-10T18:31:39;18.00;99.90
44359;DHT22;30077;52.474;13.326;2023-05-10T18:36:40;18.00;99.90
44359;DHT22;30077;52.474;13.326;2023-05-10T18:41:43;17.90;99.90
44359;DHT22;30077;52.474;13.326;2023-05-10T18:46:45;17.90;99.90
44359;DHT22;30077;52.474;13.326;2023-05-10T18:51:45;17.90;99.90
44359;DHT22;30077;52.474;13.326;2023-05-10T18:56:47;17.70;99.90
44359;DHT22;30077;52.474;13.326;2023-05-10T19:01:47;17.60;99.90
44359;DHT22;30077;52.474;13.326;2023-05-10T19:06:48;17.40;99.90
44359;DHT22;30077;52.474;13.326;2023-05-10T19:11:50;17.20;99.90
44359;DHT22;30077;52.474;13.326;2023-05-10T19:16:50;17.10;99.90
44359;DHT22;30077;52.474;13.326;2023-05-10T19:21:51;16.90;99.90
44359;DHT22;30077;52.474;13.326;2023-05-10T19:26:51;16.80;99.90
44359;DHT22;30077;52.474;13.326;2023-05-10T19:31:53;16.70;99.90
44359;DHT22;30077;52.474;13.326;2023-05-10T19:36:55;16.60;99.90
44359;DHT22;30077;52.474;13.326;2023-05-10T19:41:56;16.60;99.90
44359;DHT22;30077;52.474;13.326;2023-05-10T19:46:57;16.60;99.90
44359;DHT22;30077;52.474;13.326;2023-05-10T19:51:58;16.60;99.90
44359;DHT22;30077;52.474;13.326;2023-05-10T19:56:58;16.50;99.90
44359;DHT22;30077;52.474;13.326;2023-05-10T20:01:59;16.50;99.90
44359;DHT22;30077;52.474;13.326;2023-05-10T20:06:59;16.40;99.90
44359;DHT22;30077;52.474;13.326;2023-05-10T20:12:00;16.30;99.90
44359;DHT22;30077;52.474;13.326;2023-05-10T20:17:01;16.30;99.90
44359;DHT22;30077;52.474;13.326;2023-05-10T20:22:01;16.30;99.90
44359;DHT22;30077;52.474;13.326;2023-05-10T20:27:04;16.20;99.90
44359;DHT22;30077;52.474;13.326;2023-05-10T20:32:05;16.10;99.90
44359;DHT22;30077;52.474;13.326;2023-05-10T20:37:05;16.10;99.90
44359;DHT22;30077;52.474;13.326;2023-05-10T20:42:06;16.00;99.90
44359;DHT22;30077;52.474;13.326;2023-05-10T20:47:07;16.00;99.90
44359;DHT22;30077;52.474;13.326;2023-05-10T20:52:08;15.90;99.90
44359;DHT22;30077;52.474;13.326;2023-05-10T20:57:09;15.80;99.90
44359;DHT22;30077;52.474;13.326;2023-05-10T21:02:11;15.70;99.90
44359;DHT22;30077;52.474;13.326;2023-05-10T21:07:12;15.70;99.90
44359;DHT22;30077;52.474;13.326;2023-05-10T21:12:12;15.60;99.90
44359;DHT22;30077;52.474;13.326;2023-05-10T21:17:13;15.50;99.90
44359;DHT22;30077;52.474;13.326;2023-05-10T21:22:14;15.50;99.90
44359;DHT22;30077;52.474;13.326;2023-05-10T21:27:14;15.50;99.90
44359;DHT22;30077;52.474;13.326;2023-05-10T21:32:15;15.50;99.90
44359;DHT22;30077;52.474;13.326;2023-05-10T21:37:15;15.50;99.90
44359;DHT22;30077;52.474;13.326;2023-05-10T21:42:19;15.50;99.90
44359;DHT22;30077;52.474;13.326;2023-05-10T21:47:19;15.60;99.90
44359;DHT22;30077;52.474;13.326;2023-05-10T21:52:20;15.60;99.90
44359;DHT22;30077;52.474;13.326;2023-05-10T21:57:20;15.70;99.90
44359;DHT22;30077;52.474;13.326;2023-05-10T22:02:21;15.70;99.90
44359;DHT22;30077;52.474;13.326;2023-05-10T22:07:22;15.80;99.90
44359;DHT22;30077;52.474;13.326;2023-05-10T22:12:22;15.80;99.90
44359;DHT22;30077;52.474;13.326;2023-05-10T22:17:23;15.80;99.90
44359;DHT22;30077;52.474;13.326;2023-05-10T22:22:23;15.80;99.90
44359;DHT22;30077;52.474;13.326;2023-05-10T22:27:24;15.80;99.90
44359;DHT22;30077;52.474;13.326;2023-05-10T22:32:24;15.80;99.90
44359;DHT22;30077;52.474;13.326;2023-05-10T22:37:25;15.70;99.90
44359;DHT22;30077;52.474;13.326;2023-05-10T22:42:26;15.70;99.90
44359;DHT22;30077;52.474;13.326;2023-05-10T22:47:26;15.70;99.90
44359;DHT22;30077;52.474;13.326;2023-05-10T22:52:27;15.60;99.90
44359;DHT22;30077;52.474;13.326;2023-05-10T22:57:27;15.60;99.90
44359;DHT22;30077;52.474;13.326;2023-05-10T23:02:28;15.60;99.90
44359;DHT22;30077;52.474;13.326;2023-05-10T23:07:28;15.60;99.90
44359;DHT22;30077;52.474;13.326;2023-05-10T23:12:29;15.50;99.90
44359;DHT22;30077;52.474;13.326;2023-05-10T23:17:30;15.50;99.90
44359;DHT22;30077;52.474;13.326;2023-05-10T23:22:31;15.40;99.90
44359;DHT22;30077;52.474;13.326;2023-05-10T23:27:31;15.30;99.90
44359;DHT22;30077;52.474;13.326;2023-05-10T23:32:32;15.30;99.90
44359;DHT22;30077;52.474;13.326;2023-05-10T23:37:32;15.20;99.90
44359;DHT22;30077;52.474;13.326;2023-05-10T23:42:33;15.00;99.90
44359;DHT22;30077;52.474;13.326;2023-05-10T23:47:33;14.90;99.90
44359;DHT22;30077;52.474;13.326;2023-05-10T23:52:34;14.80;99.90
44359;DHT22;30077;52.474;13.326;2023-05-10T23:57:34;14.80;99.90
